Time;durP1;ratioP1;P1;durP2;ratioP2;P2;SDS_P1;SDS_P2;PMS_P1;PMS_P2;Temp;Humidity;BMP_temperature;BMP_pressure;BME280_temperature;BME280_humidity;BME280_pressure;Samples;Min_cycle;Max_cycle;Signal;HPM_P1;HPM_P2
2022/04/25 00:00:36;;;;;;;80.45;28.13;;;12.40;99.90;;;;;;4843770;29;20026;-73
2022/04/25 00:03:03;;;;;;;71.43;27.10;;;12.40;99.90;;;;;;4843889;29;20034;-74
2022/04/25 00:05:29;;;;;;;84.60;26.20;;;12.40;99.90;;;;;;4843566;29;20030;-72
2022/04/25 00:07:55;;;;;;;70.70;24.00;;;12.30;99.90;;;;;;4843707;29;20370;-73
2022/04/25 00:10:20;;;;;;;62.80;23.17;;;12.30;99.90;;;;;;4843754;29;20022;-74
2022/04/25 00:12:47;;;;;;;69.13;22.08;;;12.30;99.90;;;;;;4843488;29;20029;-75
2022/04/25 00:15:12;;;;;;;57.17;18.90;;;12.20;99.90;;;;;;4843859;29;20058;-74
2022/04/25 00:17:38;;;;;;;58.53;22.23;;;12.20;99.90;;;;;;4843358;29;20062;-74
2022/04/25 00:20:05;;;;;;;58.13;19.27;;;12.10;99.90;;;;;;4843432;29;20097;-73
2022/04/25 00:22:31;;;;;;;59.30;19.85;;;12.10;99.90;;;;;;4843767;29;20025;-74
2022/04/25 00:24:58;;;;;;;50.58;18.17;;;12.20;99.90;;;;;;4843260;29;20045;-75
2022/04/25 00:27:25;;;;;;;57.08;19.95;;;12.10;99.90;;;;;;4843312;29;20024;-73
2022/04/25 00:29:51;;;;;;;53.15;19.67;;;12.00;99.90;;;;;;4843352;29;20082;-74
2022/04/25 00:32:16;;;;;;;54.85;18.45;;;12.00;99.90;;;;;;4843405;29;20114;-74
2022/04/25 00:34:42;;;;;;;58.88;19.55;;;12.00;99.90;;;;;;4843440;29;20370;-74
2022/04/25 00:37:08;;;;;;;61.40;20.55;;;12.00;99.90;;;;;;4843063;29;20358;-74
2022/04/25 00:39:33;;;;;;;51.33;19.05;;;11.90;99.90;;;;;;4841484;29;20473;-73
2022/04/25 00:41:59;;;;;;;61.75;20.98;;;11.80;99.90;;;;;;4841762;29;20030;-74
2022/04/25 00:44:25;;;;;;;65.20;21.25;;;11.80;99.90;;;;;;4841950;29;20029;-75
2022/04/25 00:46:54;;;;;;;67.88;20.90;;;11.70;99.90;;;;;;4842049;29;20054;-74
2022/04/25 00:49:23;;;;;;;53.28;17.83;;;11.70;99.90;;;;;;4842050;29;20018;-74
2022/04/25 00:51:51;;;;;;;49.67;17.40;;;11.70;99.90;;;;;;4839633;29;20086;-73
2022/04/25 00:54:19;;;;;;;47.45;16.83;;;11.70;99.90;;;;;;4841965;29;20033;-74
2022/04/25 00:56:46;;;;;;;60.58;19.10;;;11.70;99.90;;;;;;4841849;29;20022;-75
2022/04/25 00:59:18;;;;;;;49.17;18.02;;;11.70;99.90;;;;;;4841333;29;20045;-75
2022/04/25 01:01:44;;;;;;;;;;;11.80;99.90;;;;;;4842257;29;20033;-75
2022/04/25 01:04:10;;;;;;;52.13;18.60;;;11.80;99.90;;;;;;4841612;29;19909;-73
2022/04/25 01:06:36;;;;;;;48.58;18.17;;;11.80;99.90;;;;;;4841661;29;20480;-75
2022/04/25 01:09:03;;;;;;;53.67;18.17;;;11.80;99.90;;;;;;4841401;29;20492;-74
2022/04/25 01:11:29;;;;;;;58.95;17.80;;;11.80;99.90;;;;;;4841511;29;20038;-76
2022/04/25 01:13:55;;;;;;;51.20;18.38;;;11.70;99.90;;;;;;4841356;29;20033;-74
2022/04/25 01:16:21;;;;;;;44.47;14.05;;;11.70;99.90;;;;;;4841333;29;20034;-73
2022/04/25 01:18:47;;;;;;;39.45;12.93;;;11.60;99.90;;;;;;4842070;29;20022;-74
2022/04/25 01:21:17;;;;;;;43.05;13.30;;;11.60;99.90;;;;;;4841209;29;20037;-74
2022/04/25 01:29:13;;;;;;;48.80;13.77;;;11.50;99.90;;;;;;4839902;29;20423;-73
2022/04/25 01:31:38;;;;;;;42.90;12.88;;;11.60;99.90;;;;;;4841168;29;20484;-74
2022/04/25 01:34:04;;;;;;;40.55;11.95;;;11.60;99.90;;;;;;4841316;29;20026;-75
2022/04/25 01:36:30;;;;;;;28.50;12.45;;;11.70;99.90;;;;;;4841484;29;20022;-76
2022/04/25 01:38:56;;;;;;;39.40;12.55;;;11.60;99.90;;;;;;4841330;29;20047;-75
2022/04/25 01:41:22;;;;;;;31.67;12.00;;;11.60;99.90;;;;;;4841034;29;20153;-74
2022/04/25 01:43:48;;;;;;;34.72;11.90;;;11.60;99.90;;;;;;4841233;29;20483;-74
2022/04/25 01:46:14;;;;;;;34.22;11.93;;;11.60;99.90;;;;;;4841821;29;20037;-74
2022/04/25 01:48:40;;;;;;;36.10;12.27;;;11.60;99.90;;;;;;4841286;29;20031;-74
2022/04/25 01:51:06;;;;;;;38.28;11.38;;;11.60;99.90;;;;;;4838641;29;20029;-74
2022/04/25 01:53:32;;;;;;;44.05;12.45;;;11.50;99.90;;;;;;4841490;29;20373;-74
2022/04/25 01:55:57;;;;;;;40.08;11.57;;;11.50;99.90;;;;;;4841306;29;20033;-74
2022/04/25 01:58:24;;;;;;;36.85;11.68;;;11.50;99.90;;;;;;4840817;29;20046;-74
2022/04/25 02:00:49;;;;;;;32.58;10.32;;;11.50;99.90;;;;;;4841154;29;20033;-75
2022/04/25 02:03:15;;;;;;;32.17;9.80;;;11.50;99.90;;;;;;4843098;29;20030;-74
2022/04/25 02:05:41;;;;;;;26.02;10.57;;;11.50;99.90;;;;;;4844782;29;20038;-75
2022/04/25 02:08:07;;;;;;;29.73;9.60;;;11.50;99.90;;;;;;4842164;29;20089;-75
2022/04/25 02:10:33;;;;;;;30.92;9.75;;;11.60;99.90;;;;;;4844323;29;20018;-74
2022/04/25 02:12:59;;;;;;;29.88;9.68;;;11.60;99.90;;;;;;4844586;29;20037;-74
2022/04/25 02:15:25;;;;;;;29.85;9.18;;;11.60;99.90;;;;;;4844202;29;20046;-74
2022/04/25 02:17:50;;;;;;;30.13;8.68;;;11.50;99.90;;;;;;4844294;29;20026;-75
2022/04/25 02:20:16;;;;;;;23.92;9.20;;;11.30;99.90;;;;;;4844302;29;20377;-75
2022/04/25 02:22:43;;;;;;;36.20;11.13;;;11.30;99.90;;;;;;4844254;29;20033;-74
2022/04/25 02:25:09;;;;;;;30.63;10.30;;;11.30;99.90;;;;;;4844593;29;20044;-75
2022/04/25 02:27:36;;;;;;;31.60;9.70;;;11.40;99.90;;;;;;4844421;29;20018;-77
2022/04/25 02:30:02;;;;;;;35.40;8.25;;;11.60;99.90;;;;;;4827597;29;20058;-77
2022/04/25 02:32:28;;;;;;;25.75;8.77;;;11.80;99.90;;;;;;4843865;29;20025;-75
2022/04/25 02:34:54;;;;;;;28.10;9.60;;;11.90;99.90;;;;;;4844318;29;20469;-75
2022/04/25 02:37:21;;;;;;;45.50;11.80;;;11.90;99.90;;;;;;4844112;29;20038;-77
2022/04/25 02:39:46;;;;;;;45.08;11.25;;;12.00;99.90;;;;;;4841707;29;20022;-78
2022/04/25 02:42:12;;;;;;;31.15;10.07;;;11.90;99.90;;;;;;4843928;29;20036;-78
2022/04/25 02:44:38;;;;;;;22.73;7.57;;;11.90;99.90;;;;;;4844058;29;20021;-76
2022/04/25 02:47:04;;;;;;;22.08;7.20;;;11.90;99.90;;;;;;4844219;29;20022;-76
2022/04/25 02:49:30;;;;;;;21.13;6.97;;;12.00;99.90;;;;;;4843869;29;20050;-78
2022/04/25 02:51:57;;;;;;;15.50;6.18;;;12.00;99.90;;;;;;4843845;29;20030;-78
2022/04/25 02:54:22;;;;;;;23.23;6.25;;;12.00;99.90;;;;;;4844116;29;20114;-76
2022/04/25 02:56:48;;;;;;;16.73;5.32;;;12.00;99.90;;;;;;4843786;29;20062;-76
2022/04/25 02:59:15;;;;;;;21.70;4.57;;;12.00;99.90;;;;;;4843676;29;20374;-77
2022/04/25 03:01:41;;;;;;;17.70;3.65;;;12.10;99.90;;;;;;4843781;29;20030;-76
2022/04/25 03:04:08;;;;;;;18.02;4.05;;;12.10;99.90;;;;;;4841422;29;20022;-77
2022/04/25 03:06:33;;;;;;;8.95;3.22;;;12.20;99.90;;;;;;4843344;29;20029;-76
2022/04/25 03:08:59;;;;;;;11.20;2.75;;;12.20;99.90;;;;;;4827112;29;20109;-74
2022/04/25 03:11:25;;;;;;;9.48;2.25;;;12.20;99.90;;;;;;4843694;29;20082;-77
2022/04/25 03:13:52;;;;;;;11.25;2.60;;;12.20;99.90;;;;;;4843450;29;20078;-75
2022/04/25 03:16:19;;;;;;;11.07;2.72;;;12.20;99.90;;;;;;4843409;29;20026;-76
2022/04/25 03:18:45;;;;;;;13.10;4.18;;;12.20;99.90;;;;;;4843389;29;20029;-74
2022/04/25 03:21:11;;;;;;;14.95;4.82;;;12.20;99.90;;;;;;4843262;29;20024;-75
2022/04/25 03:23:37;;;;;;;13.07;3.50;;;12.20;99.90;;;;;;4843491;29;20450;-74
2022/04/25 03:26:04;;;;;;;7.53;3.25;;;12.20;99.90;;;;;;4843200;29;20037;-76
2022/04/25 03:28:30;;;;;;;12.70;2.95;;;12.10;99.90;;;;;;4843172;29;20529;-75
2022/04/25 03:30:56;;;;;;;16.77;7.00;;;12.10;99.90;;;;;;4843319;29;20093;-74
2022/04/25 03:33:22;;;;;;;19.15;6.35;;;12.00;99.90;;;;;;4843167;29;20018;-74
2022/04/25 03:35:48;;;;;;;13.57;3.60;;;11.90;99.90;;;;;;4840593;29;20449;-75
2022/04/25 03:38:17;;;;;;;13.52;3.20;;;11.90;99.90;;;;;;4843035;29;20082;-77
2022/04/25 03:40:43;;;;;;;8.60;2.28;;;11.90;99.90;;;;;;4842719;29;20041;-74
2022/04/25 03:43:09;;;;;;;13.00;2.38;;;11.90;99.90;;;;;;4843328;29;20072;-75
2022/04/25 03:45:35;;;;;;;7.55;2.33;;;11.90;99.90;;;;;;4826697;29;20480;-75
2022/04/25 03:48:01;;;;;;;9.52;2.40;;;12.00;99.90;;;;;;4843097;29;20018;-75
2022/04/25 03:50:27;;;;;;;10.07;2.08;;;12.00;99.90;;;;;;4840538;29;20018;-74
2022/04/25 03:52:53;;;;;;;15.10;2.65;;;12.00;99.90;;;;;;4842923;29;20090;-76
2022/04/25 03:58:04;;;;;;;14.80;4.28;;;11.90;99.90;;;;;;4842195;29;20095;-75
2022/04/25 04:00:31;;;;;;;17.98;5.72;;;11.90;99.90;;;;;;4842398;29;20025;-76
2022/04/25 04:02:58;;;;;;;16.02;6.05;;;11.90;99.90;;;;;;4843465;29;20034;-75
2022/04/25 04:05:25;;;;;;;19.65;5.45;;;11.90;99.90;;;;;;4844058;29;20105;-74
2022/04/25 04:07:51;;;;;;;16.10;5.40;;;11.90;99.90;;;;;;4843774;29;20029;-75
2022/04/25 04:10:19;;;;;;;16.73;4.40;;;11.90;99.90;;;;;;4844063;29;20026;-75
2022/04/25 04:12:46;;;;;;;13.48;3.40;;;11.80;99.90;;;;;;4843676;29;20153;-75
2022/04/25 04:15:13;;;;;;;12.50;3.60;;;11.80;99.90;;;;;;4843732;29;20034;-75
2022/04/25 04:17:39;;;;;;;8.43;3.28;;;11.80;99.90;;;;;;4843537;29;20243;-75
2022/04/25 04:20:06;;;;;;;10.65;3.03;;;11.80;99.90;;;;;;4843615;29;20454;-75
2022/04/25 04:22:33;;;;;;;16.38;3.70;;;11.80;99.90;;;;;;4843282;29;20074;-75
2022/04/25 04:25:06;;;;;;;8.73;3.10;;;11.80;99.90;;;;;;4842698;29;20497;-74
2022/04/25 04:27:32;;;;;;;14.50;3.25;;;11.70;99.90;;;;;;4827506;29;20032;-75
2022/04/25 04:30:04;;;;;;;15.50;2.95;;;11.70;99.90;;;;;;4843443;29;20369;-75
2022/04/25 04:32:30;;;;;;;13.48;3.47;;;11.70;99.90;;;;;;4842737;29;20037;-74
2022/04/25 04:35:01;;;;;;;12.88;3.70;;;11.70;99.90;;;;;;4842798;29;20041;-74
2022/04/25 04:37:32;;;;;;;18.45;4.95;;;11.80;99.90;;;;;;4842519;29;20026;-76
2022/04/25 04:42:42;;;;;;;10.10;3.58;;;11.70;99.90;;;;;;4842447;29;20048;-75
2022/04/25 04:45:10;;;;;;;17.73;3.55;;;11.80;99.90;;;;;;4842836;29;20026;-74
2022/04/25 04:47:36;;;;;;;10.55;3.38;;;11.80;99.90;;;;;;4843086;29;20034;-75
2022/04/25 04:50:14;;;;;;;10.70;5.50;;;11.90;99.90;;;;;;4826040;29;20046;-75
2022/04/25 04:52:44;;;;;;;12.13;3.20;;;11.80;99.90;;;;;;4843029;29;20029;-74
2022/04/25 04:55:11;;;;;;;14.38;3.30;;;11.90;99.90;;;;;;4826833;29;20110;-75
2022/04/25 04:57:37;;;;;;;12.60;3.40;;;11.90;99.90;;;;;;4842963;29;20046;-75
2022/04/25 05:00:05;;;;;;;16.10;4.15;;;11.90;99.90;;;;;;4843039;29;20028;-75
2022/04/25 05:02:32;;;;;;;19.58;3.75;;;11.80;99.90;;;;;;4842915;29;20133;-74
2022/04/25 05:04:57;;;;;;;15.10;3.83;;;11.80;99.90;;;;;;4842708;29;20343;-75
2022/04/25 05:07:23;;;;;;;17.25;4.20;;;11.80;99.90;;;;;;4842533;29;20469;-74
2022/04/25 05:09:49;;;;;;;13.73;4.50;;;11.90;99.90;;;;;;4842822;29;20030;-74
2022/04/25 05:12:14;;;;;;;8.77;4.03;;;11.90;99.90;;;;;;4842696;29;20034;-75
2022/04/25 05:14:41;;;;;;;13.07;5.10;;;12.10;99.90;;;;;;4842297;29;20094;-75
2022/04/25 05:17:06;;;;;;;16.38;4.65;;;12.20;99.90;;;;;;4842151;29;20106;-75
2022/04/25 05:19:32;;;;;;;24.05;5.93;;;12.30;99.90;;;;;;4841956;29;20026;-75
2022/04/25 05:21:58;;;;;;;11.50;5.43;;;12.50;99.90;;;;;;4842087;29;20082;-74
2022/04/25 05:24:24;;;;;;;12.48;6.28;;;12.50;99.90;;;;;;4842117;29;20085;-75
2022/04/25 05:26:49;;;;;;;13.85;4.32;;;12.50;99.90;;;;;;4842296;29;20363;-75
2022/04/25 05:29:15;;;;;;;9.68;3.70;;;12.60;99.90;;;;;;4842676;29;20042;-76
2022/04/25 05:31:41;;;;;;;13.77;3.60;;;12.60;99.90;;;;;;4842783;29;20162;-74
2022/04/25 05:34:07;;;;;;;8.40;2.97;;;12.70;99.90;;;;;;4842768;29;20077;-75
2022/04/25 05:36:32;;;;;;;14.05;3.55;;;12.70;99.90;;;;;;4843806;29;20022;-73
2022/04/25 05:38:58;;;;;;;13.18;3.67;;;12.70;99.90;;;;;;4845918;29;20450;-75
2022/04/25 05:41:24;;;;;;;12.75;3.33;;;12.80;99.90;;;;;;4829859;29;20033;-75
2022/04/25 05:43:50;;;;;;;9.00;2.75;;;12.90;99.90;;;;;;4845625;29;20033;-76
2022/04/25 05:46:15;;;;;;;16.48;5.32;;;13.10;99.90;;;;;;4845823;29;20048;-75
2022/04/25 05:54:12;;;;;;;13.00;3.70;;;13.60;99.90;;;;;;4845834;29;20049;-75
2022/04/25 05:56:39;;;;;;;9.88;3.38;;;13.70;99.90;;;;;;4846105;29;20030;-75
2022/04/25 05:59:04;;;;;;;12.35;4.07;;;13.70;99.90;;;;;;4846311;29;20126;-76
2022/04/25 06:01:30;;;;;;;12.82;4.15;;;13.70;99.90;;;;;;4845128;29;20063;-76
2022/04/25 06:03:56;;;;;;;10.57;2.97;;;13.70;99.90;;;;;;4845858;29;20374;-74
2022/04/25 06:06:23;;;;;;;15.32;5.68;;;13.80;99.90;;;;;;4845958;29;20026;-74
2022/04/25 06:08:49;;;;;;;11.52;3.92;;;14.00;99.90;;;;;;4846280;29;20112;-73
2022/04/25 06:11:15;;;;;;;12.50;3.58;;;14.10;99.90;;;;;;4845875;29;20026;-73
2022/04/25 06:13:44;;;;;;;9.95;1.60;;;14.30;99.90;;;;;;4846068;29;20041;-76
2022/04/25 06:16:11;;;;;;;5.55;1.40;;;14.40;99.90;;;;;;4845669;29;20025;-75
2022/04/25 06:18:37;;;;;;;14.85;2.97;;;14.60;99.90;;;;;;4845416;29;20033;-74
2022/04/25 06:21:03;;;;;;;9.32;2.55;;;14.90;99.90;;;;;;4845272;29;20026;-74
2022/04/25 06:23:30;;;;;;;10.38;2.50;;;15.00;99.90;;;;;;4845417;29;20101;-74
2022/04/25 06:25:56;;;;;;;8.43;2.30;;;15.10;99.90;;;;;;4845643;29;20026;-74
2022/04/25 06:28:24;;;;;;;8.38;2.10;;;15.10;99.90;;;;;;4845214;29;20022;-75
2022/04/25 06:30:51;;;;;;;13.43;2.58;;;15.20;99.90;;;;;;4845081;29;20037;-73
2022/04/25 06:33:17;;;;;;;6.75;2.60;;;15.30;99.90;;;;;;4845438;29;20038;-74
2022/04/25 06:35:44;;;;;;;9.10;2.38;;;15.40;99.90;;;;;;4844949;29;20078;-74
2022/04/25 06:38:10;;;;;;;9.60;3.25;;;15.40;99.90;;;;;;4844820;29;20030;-73
2022/04/25 06:40:37;;;;;;;11.63;2.42;;;15.40;99.90;;;;;;4845907;29;20026;-73
2022/04/25 06:43:03;;;;;;;11.90;2.63;;;15.40;99.90;;;;;;4844766;29;20044;-72
2022/04/25 06:45:30;;;;;;;9.23;2.05;;;15.60;99.90;;;;;;4845193;29;20056;-73
2022/04/25 06:47:56;;;;;;;10.02;2.50;;;15.60;99.90;;;;;;4844480;29;20022;-74
2022/04/25 06:50:23;;;;;;;6.35;1.90;;;15.90;99.90;;;;;;4844266;29;20026;-76
2022/04/25 06:52:49;;;;;;;6.72;2.22;;;15.90;99.90;;;;;;4844690;29;20450;-74
2022/04/25 06:55:15;;;;;;;8.40;2.38;;;16.10;99.90;;;;;;4845220;29;20074;-76
2022/04/25 06:57:40;;;;;;;7.28;2.50;;;16.30;99.90;;;;;;4844711;29;20501;-74
2022/04/25 07:00:11;;;;;;;7.20;1.83;;;16.40;99.90;;;;;;4844372;29;20038;-73
2022/04/25 07:02:37;;;;;;;9.13;2.30;;;16.60;99.90;;;;;;4842542;29;20026;-73
2022/04/25 07:05:07;;;;;;;8.93;2.00;;;16.80;99.90;;;;;;4844863;29;20033;-74
2022/04/25 07:07:33;;;;;;;7.20;1.83;;;16.80;99.90;;;;;;4845052;29;20113;-74
2022/04/25 07:09:59;;;;;;;7.32;1.83;;;17.00;99.90;;;;;;4844901;29;20041;-73
2022/04/25 07:12:27;;;;;;;7.03;1.98;;;17.40;99.90;;;;;;4844622;29;20026;-74
2022/04/25 07:14:53;;;;;;;7.72;1.77;;;17.60;99.90;;;;;;4844387;29;20074;-74
2022/04/25 07:17:19;;;;;;;9.65;2.70;;;17.30;99.90;;;;;;4844419;29;20505;-74
2022/04/25 07:19:44;;;;;;;9.07;1.88;;;17.30;99.90;;;;;;4843979;29;20074;-76
2022/04/25 07:30:26;;;;;;;10.23;1.77;;;17.30;99.90;;;;;;4842482;29;20085;-73
2022/04/25 07:32:52;;;;;;;4.72;1.27;;;17.20;99.90;;;;;;4844025;29;20045;-74
2022/04/25 07:35:18;;;;;;;6.88;1.58;;;17.30;99.90;;;;;;4843577;29;20029;-74
2022/04/25 07:37:44;;;;;;;7.72;1.67;;;17.40;99.90;;;;;;4843213;29;20034;-73
2022/04/25 07:40:10;;;;;;;4.85;1.38;;;17.40;99.90;;;;;;4843358;29;20029;-73
2022/04/25 07:42:38;;;;;;;10.77;2.05;;;17.50;99.90;;;;;;4843651;29;20062;-74
2022/04/25 07:45:04;;;;;;;6.57;1.60;;;17.60;99.90;;;;;;4842614;29;20037;-74
2022/04/25 07:47:31;;;;;;;9.20;1.50;;;17.60;99.90;;;;;;4842360;29;20026;-75
2022/04/25 07:49:57;;;;;;;7.28;1.42;;;17.70;99.90;;;;;;4840628;29;20445;-74
2022/04/25 07:52:23;;;;;;;9.55;1.48;;;17.70;99.90;;;;;;4843048;29;20038;-72
2022/04/25 07:54:51;;;;;;;8.63;1.40;;;17.80;99.90;;;;;;4841886;29;20040;-72
2022/04/25 07:57:17;;;;;;;4.22;1.30;;;17.80;99.90;;;;;;4840258;29;20026;-72
2022/04/25 07:59:43;;;;;;;5.63;1.15;;;17.70;95.30;;;;;;4841347;29;20082;-73
2022/04/25 08:02:09;;;;;;;5.93;1.67;;;17.80;93.10;;;;;;4841783;29;20118;-73
2022/04/25 08:04:35;;;;;;;4.63;1.75;;;18.00;92.90;;;;;;4843041;29;20419;-72
2022/04/25 08:07:01;;;;;;;6.82;2.15;;;18.60;92.60;;;;;;4842880;29;20022;-72
2022/04/25 08:09:26;;;;;;;4.90;1.75;;;19.30;88.40;;;;;;4843709;29;20030;-73
2022/04/25 08:17:56;;;;;;;10.13;2.13;;;19.30;86.10;;;;;;4843645;29;20029;-72
2022/04/25 08:20:06;;;;;;;6.07;1.75;;;20.10;73.80;;;;;;4843409;29;20032;-73
2022/04/25 08:22:33;;;;;;;2.13;1.10;;;20.20;71.40;;;;;;4843880;29;20030;-73
2022/04/25 08:25:01;;;;;;;2.55;0.80;;;19.80;64.50;;;;;;4843585;29;20074;-73
2022/04/25 08:27:27;;;;;;;4.38;1.23;;;19.60;65.50;;;;;;4843282;29;20045;-75
2022/04/25 08:29:53;;;;;;;4.35;0.93;;;19.20;67.50;;;;;;4843338;29;20065;-74
2022/04/25 08:32:19;;;;;;;4.55;1.25;;;18.80;66.90;;;;;;4843504;29;20476;-74
2022/04/25 08:34:45;;;;;;;3.15;1.25;;;18.40;68.50;;;;;;4843547;29;20038;-73
2022/04/25 08:37:11;;;;;;;4.10;1.10;;;18.00;66.10;;;;;;4843520;29;20034;-75
2022/04/25 08:39:36;;;;;;;9.82;4.28;;;17.90;69.60;;;;;;4843848;29;20030;-74
2022/04/25 08:42:03;;;;;;;4.70;2.28;;;17.80;72.30;;;;;;4843082;29;20041;-75
2022/04/25 08:44:31;;;;;;;7.55;2.13;;;17.70;74.60;;;;;;4842983;29;20090;-75
2022/04/25 08:46:59;;;;;;;5.10;2.10;;;17.60;77.20;;;;;;4843747;29;20115;-74
2022/04/25 08:49:26;;;;;;;8.30;2.53;;;17.50;78.00;;;;;;4826960;29;20053;-74
2022/04/25 08:51:58;;;;;;;7.93;3.67;;;17.60;77.70;;;;;;4843184;29;20054;-74
2022/04/25 08:54:30;;;;;;;;;;;17.80;81.40;;;;;;4843606;29;20123;-74
2022/04/25 08:56:57;;;;;;;7.15;2.78;;;18.00;80.50;;;;;;4843163;29;19904;-74
2022/04/25 08:59:23;;;;;;;4.28;1.77;;;18.20;80.90;;;;;;4843346;29;20042;-73
2022/04/25 09:01:49;;;;;;;6.78;2.72;;;18.30;78.50;;;;;;4843104;29;20144;-74
2022/04/25 09:04:16;;;;;;;14.20;3.22;;;18.50;79.40;;;;;;4843273;29;20026;-74
2022/04/25 09:06:42;;;;;;;6.90;2.40;;;18.80;77.90;;;;;;4827050;29;20490;-74
2022/04/25 09:09:08;;;;;;;3.33;1.40;;;18.90;78.40;;;;;;4826676;29;20030;-75
2022/04/25 09:14:19;;;;;;;4.05;1.85;;;20.20;67.80;;;;;;4843350;29;20033;-71
2022/04/25 09:16:45;;;;;;;13.13;4.07;;;20.60;69.90;;;;;;4842743;29;20026;-72
2022/04/25 09:19:11;;;;;;;6.38;2.42;;;21.00;65.90;;;;;;4841974;29;20068;-72
2022/04/25 09:21:44;;;;;;;5.32;2.47;;;21.80;65.70;;;;;;4842947;29;20057;-73
2022/04/25 09:24:44;;;;;;;7.07;3.10;;;21.70;64.20;;;;;;4842870;29;20346;-72
2022/04/25 09:27:12;;;;;;;11.68;5.13;;;21.60;61.10;;;;;;4825395;29;20094;-71
2022/04/25 09:29:40;;;;;;;9.27;4.53;;;20.60;61.40;;;;;;4842224;29;20034;-72
2022/04/25 09:32:09;;;;;;;5.70;2.85;;;20.70;61.30;;;;;;4842452;29;20055;-72
2022/04/25 09:37:45;;;;;;;3.90;1.80;;;20.90;62.90;;;;;;4842525;29;20073;-73
2022/04/25 09:40:12;;;;;;;3.70;1.90;;;21.60;61.60;;;;;;4842707;29;20030;-73
2022/04/25 09:42:38;;;;;;;7.78;2.75;;;21.10;61.00;;;;;;4842714;29;20113;-73
2022/04/25 09:45:05;;;;;;;1.67;1.40;;;21.40;63.80;;;;;;4842628;29;20109;-72
2022/04/25 09:47:36;;;;;;;4.65;2.00;;;21.80;58.60;;;;;;4842777;29;20366;-71
2022/04/25 09:50:07;;;;;;;3.80;2.57;;;;;;;;;;4842952;29;20030;-72
2022/04/25 09:52:35;;;;;;;4.40;2.60;;;22.60;57.70;;;;;;4842254;29;20425;-72
2022/04/25 09:55:12;;;;;;;6.18;2.22;;;22.20;57.50;;;;;;4842783;29;20166;-72
2022/04/25 09:57:38;;;;;;;4.30;1.70;;;22.40;56.70;;;;;;4842301;29;20042;-72
2022/04/25 10:00:05;;;;;;;2.10;1.90;;;22.40;55.30;;;;;;4842817;29;20037;-73
2022/04/25 10:02:30;;;;;;;4.05;2.17;;;22.40;57.30;;;;;;4842647;29;20026;-73
2022/04/25 10:04:56;;;;;;;2.53;2.28;;;22.60;54.20;;;;;;4842307;29;20065;-72
2022/04/25 10:07:23;;;;;;;7.07;2.88;;;22.50;54.30;;;;;;4842557;29;20059;-72
2022/04/25 10:09:52;;;;;;;4.68;2.08;;;22.30;53.30;;;;;;4842455;29;20355;-73
2022/04/25 10:12:18;;;;;;;4.78;2.05;;;22.60;53.40;;;;;;4842166;29;20061;-73
2022/04/25 10:14:44;;;;;;;4.35;2.15;;;22.70;54.50;;;;;;4842390;29;20041;-72
2022/04/25 10:17:11;;;;;;;3.15;2.70;;;22.40;53.10;;;;;;4842369;29;20465;-74
2022/04/25 10:19:38;;;;;;;1.80;1.60;;;22.60;55.20;;;;;;4825975;29;20374;-73
2022/04/25 10:22:04;;;;;;;2.97;2.05;;;22.80;54.20;;;;;;4842254;29;20038;-72
2022/04/25 10:24:32;;;;;;;4.38;2.00;;;22.50;52.60;;;;;;4844819;29;20034;-71
2022/04/25 10:27:08;;;;;;;5.40;2.28;;;22.30;52.00;;;;;;4845708;29;20022;-74
2022/04/25 10:29:36;;;;;;;2.63;2.30;;;22.30;52.50;;;;;;4845611;29;20374;-72
2022/04/25 10:32:04;;;;;;;3.45;2.50;;;22.30;53.60;;;;;;4845728;29;20030;-73
2022/04/25 10:35:04;;;;;;;3.58;2.20;;;22.70;53.60;;;;;;4845544;29;20093;-73
2022/04/25 10:37:40;;;;;;;4.93;2.60;;;;;;;;;;4845681;29;20450;-74
2022/04/25 10:40:06;;;;;;;5.03;2.35;;;;;;;;;;4845438;29;20473;-73
2022/04/25 10:45:16;;;;;;;2.20;2.00;;;23.20;46.50;;;;;;4845769;29;20573;-73
2022/04/25 10:47:59;;;;;;;2.53;2.10;;;23.20;49.40;;;;;;4845084;29;20101;-73
2022/04/25 10:50:26;;;;;;;2.53;2.00;;;;;;;;;;4845150;29;20061;-73
2022/04/25 10:52:56;;;;;;;3.58;2.97;;;;;;;;;;4845438;29;20106;-72
2022/04/25 10:55:43;;;;;;;3.15;2.85;;;;;;;;;;4845212;29;20163;-74
2022/04/25 10:58:09;;;;;;;5.60;3.10;;;;;;;;;;4845371;29;20391;-74
2022/04/25 11:00:41;;;;;;;3.50;3.20;;;;;;;;;;4845119;29;20085;-73
2022/04/25 11:03:07;;;;;;;;;;;;;;;;;;4845520;29;20022;-73
2022/04/25 11:05:37;;;;;;;3.42;2.92;;;;;;;;;;4845177;29;19905;-73
2022/04/25 11:08:22;;;;;;;3.92;3.15;;;;;;;;;;4845014;29;20026;-75
2022/04/25 11:11:09;;;;;;;3.38;3.08;;;;;;;;;;4845045;29;20026;-72
2022/04/25 11:13:36;;;;;;;4.43;3.30;;;;;;;;;;4844887;29;20052;-74
2022/04/25 11:16:16;;;;;;;5.38;3.60;;;;;;;;;;4844530;29;20094;-73
2022/04/25 11:18:42;;;;;;;3.53;2.53;;;;;;;;;;4844483;29;20029;-73
2022/04/25 11:21:16;;;;;;;5.90;2.70;;;;;;;;;;4844658;29;20530;-72
2022/04/25 11:23:45;;;;;;;7.28;2.83;;;;;;;;;;4844314;29;20025;-73
2022/04/25 11:26:36;;;;;;;2.92;2.70;;;;;;;;;;4841972;29;20022;-73
2022/04/25 11:29:09;;;;;;;3.33;2.95;;;;;;;;;;4843955;29;20029;-73
2022/04/25 11:31:36;;;;;;;3.30;3.10;;;;;;;;;;4844366;29;20038;-73
2022/04/25 11:34:03;;;;;;;2.70;2.42;;;;;;;;;;4843507;29;20030;-74
2022/04/25 11:36:39;;;;;;;3.55;3.33;;;;;;;;;;4843804;29;20025;-74
2022/04/25 11:41:51;;;;;;;3.05;2.85;;;;;;;;;;4842786;29;20076;-74
2022/04/25 11:44:17;;;;;;;4.50;4.10;;;;;;;;;;4843795;29;20359;-74
2022/04/25 11:46:43;;;;;;;3.60;3.30;;;;;;;;;;4843518;29;20021;-74
2022/04/25 11:49:09;;;;;;;4.78;3.53;;;;;;;;;;4843567;29;20022;-73
2022/04/25 11:51:37;;;;;;;3.60;3.30;;;;;;;;;;4844212;29;20034;-74
2022/04/25 11:54:07;;;;;;;3.55;3.30;;;;;;;;;;4844291;29;20034;-74
2022/04/25 11:56:39;;;;;;;4.90;3.55;;;;;;;;;;4844228;29;20090;-74
2022/04/25 11:59:05;;;;;;;;;;;;;;;;;;4844698;29;20089;-74
2022/04/25 12:01:32;;;;;;;3.53;3.05;;;;;;;;;;4827601;29;19955;-74
2022/04/25 12:04:17;;;;;;;2.80;2.60;;;;;;;;;;4844025;29;20434;-74
2022/04/25 12:06:47;;;;;;;3.30;3.08;;;;;;;;;;4827704;29;20117;-74
2022/04/25 12:17:41;;;;;;;4.97;3.60;;;;;;;;;;4843601;29;20056;-74
2022/04/25 12:20:09;;;;;;;4.40;4.10;;;;;;;;;;4843685;29;20022;-74
2022/04/25 12:22:36;;;;;;;3.58;3.28;;;;;;;;;;4843570;29;20050;-73
2022/04/25 12:25:12;;;;;;;2.97;2.78;;;;;;;;;;4843586;29;20450;-75
2022/04/25 12:27:38;;;;;;;3.42;3.17;;;;;;;;;;4843739;29;20030;-75
2022/04/25 12:30:07;;;;;;;3.22;3.03;;;;;;;;;;4843812;29;20072;-74
2022/04/25 12:32:34;;;;;;;5.97;3.42;;;;;;;;;;4843373;29;20042;-74
2022/04/25 12:35:00;;;;;;;3.25;3.03;;;;;;;;;;4843061;29;20022;-74
2022/04/25 12:37:26;;;;;;;5.20;3.60;;;;;;;;;;4842593;29;20026;-74
2022/04/25 12:40:03;;;;;;;4.55;3.35;;;;;;;;;;4842595;29;20114;-74
2022/04/25 12:42:45;;;;;;;2.80;2.60;;;;;;;;;;4842086;29;20029;-74
2022/04/25 12:45:11;;;;;;;5.35;3.35;;;;;;;;;;4841620;29;20046;-75
2022/04/25 12:47:37;;;;;;;4.60;3.20;;;;;;;;;;4842186;29;20030;-75
2022/04/25 12:50:04;;;;;;;4.50;2.83;;;;;;;;;;4842730;29;20089;-75
2022/04/25 12:52:44;;;;;;;2.90;2.70;;;;;;;;;;4842056;29;20030;-75
2022/04/25 12:55:10;;;;;;;2.90;2.70;;;;;;;;;;4841949;29;20034;-74
2022/04/25 12:57:36;;;;;;;4.13;2.47;;;;;;;;;;4842232;29;20053;-75
2022/04/25 13:00:04;;;;;;;2.88;2.60;;;;;;;;;;4842325;29;20028;-75
2022/04/25 13:02:36;;;;;;;3.88;2.63;;;;;;;;;;4842389;29;20034;-74
2022/04/25 13:05:09;;;;;;;5.25;3.40;;;;;;;;;;4842796;29;20022;-74
2022/04/25 13:07:37;;;;;;;2.90;2.70;;;;;;;;;;4840010;29;20461;-74
2022/04/25 13:10:10;;;;;;;2.53;2.42;;;;;;;;;;4843065;29;20041;-74
2022/04/25 13:12:37;;;;;;;4.13;2.58;;;;;;;;;;4842892;29;20488;-75
2022/04/25 13:15:05;;;;;;;3.45;2.88;;;;;;;;;;4842932;29;20034;-75
2022/04/25 13:17:32;;;;;;;2.85;2.65;;;;;;;;;;4843022;29;20017;-74
2022/04/25 13:19:58;;;;;;;3.50;2.42;;;;;;;;;;4842725;29;20347;-75
2022/04/25 13:22:25;;;;;;;2.60;2.30;;;;;;;;;;4842848;29;20454;-74
2022/04/25 13:24:51;;;;;;;4.30;2.50;;;;;;;;;;4842974;29;20035;-74
2022/04/25 13:27:18;;;;;;;2.60;2.50;;;;;;;;;;4842832;29;20018;-74
2022/04/25 13:29:45;;;;;;;5.30;2.83;;;;;;;;;;4843042;29;20033;-74
2022/04/25 13:32:12;;;;;;;3.47;3.03;;;;;;;;;;4842751;29;20041;-75
2022/04/25 13:34:39;;;;;;;3.65;2.92;;;;;;;;;;4841927;29;20040;-74
2022/04/25 13:37:06;;;;;;;3.50;2.67;;;;;;;;;;4841597;29;20109;-74
2022/04/25 13:39:33;;;;;;;2.75;2.50;;;;;;;;;;4841224;29;20041;-74
2022/04/25 13:42:02;;;;;;;2.75;2.55;;;;;;;;;;4841335;29;20038;-74
2022/04/25 13:44:28;;;;;;;2.92;2.63;;;;;;;;;;4839613;29;20026;-74
2022/04/25 13:46:55;;;;;;;3.13;2.85;;;;;;;;;;4841352;29;20018;-74
2022/04/25 13:49:22;;;;;;;3.40;3.10;;;;;;;;;;4841033;29;20014;-74
2022/04/25 13:51:48;;;;;;;4.13;3.42;;;;;;;;;;4841149;29;20022;-74
2022/04/25 13:54:14;;;;;;;3.15;2.78;;;;;;;;;;4841304;29;20423;-74
2022/04/25 13:56:43;;;;;;;2.85;2.65;;;;;;;;;;4839805;29;20048;-74